Time;durP1;ratioP1;P1;durP2;ratioP2;P2;SDS_P1;SDS_P2;PMS_P1;PMS_P2;Temp;Humidity;BMP_temperature;BMP_pressure;BME280_temperature;BME280_humidity;BME280_pressure;Samples;Min_cycle;Max_cycle;Signal;HPM_P1;HPM_P2
2021/12/22 00:01:55;;;;;;;22.83;13.27;;;;;;;;;;5094002;28;20438;-72
2021/12/22 00:04:24;;;;;;;20.83;12.43;;;;;;;;;;5094409;28;20471;-72
2021/12/22 00:06:50;;;;;;;26.20;14.27;;;;;;;;;;5091488;28;20453;-74
2021/12/22 00:09:16;;;;;;;29.53;15.63;;;;;;;;;;5092086;28;20510;-72
2021/12/22 00:11:43;;;;;;;27.77;15.03;;;;;;;;;;5090083;28;20963;-72
2021/12/22 00:14:10;;;;;;;23.13;13.27;;;;;;;;;;5087872;28;20509;-72
2021/12/22 00:16:36;;;;;;;23.70;13.40;;;;;;;;;;5095076;28;20445;-72
2021/12/22 00:19:03;;;;;;;28.53;17.13;;;;;;;;;;5094216;28;20933;-72
2021/12/22 00:21:30;;;;;;;24.60;14.07;;;;;;;;;;5096219;28;20848;-71
2021/12/22 00:23:56;;;;;;;23.13;12.83;;;;;;;;;;5095382;28;20441;-71
2021/12/22 00:26:22;;;;;;;21.07;12.00;;;;;;;;;;5095628;28;20813;-71
2021/12/22 00:28:49;;;;;;;27.03;14.27;;;;;;;;;;5077817;28;20497;-72
2021/12/22 00:31:18;;;;;;;21.10;12.43;;;;;;;;;;5096226;28;20583;-72
2021/12/22 00:33:55;;;;;;;21.77;12.07;;;;;;;;;;5091557;28;21068;-72
2021/12/22 00:36:25;;;;;;;20.03;11.03;;;;;;;;;;5074334;28;20491;-72
2021/12/22 00:38:52;;;;;;;19.43;11.53;;;;;;;;;;5091337;28;20596;-72
2021/12/22 00:41:18;;;;;;;18.47;10.87;;;;;;;;;;5091206;28;20430;-72
2021/12/22 00:43:45;;;;;;;20.63;11.87;;;;;;;;;;5091756;28;20442;-72
2021/12/22 00:46:12;;;;;;;19.30;11.60;;;;;;;;;;5091709;28;20512;-72
2021/12/22 00:48:41;;;;;;;18.80;11.90;;;;;;;;;;5092603;28;20565;-72
2021/12/22 00:51:07;;;;;;;16.93;11.07;;;;;;;;;;5091525;28;20435;-72
2021/12/22 00:53:33;;;;;;;16.73;11.07;;;;;;;;;;5091620;28;20430;-73
2021/12/22 00:56:00;;;;;;;17.93;11.03;;;;;;;;;;5091811;28;20449;-72
2021/12/22 00:58:26;;;;;;;18.23;10.77;;;;;;;;;;5090381;28;20462;-72
2021/12/22 01:00:52;;;;;;;17.00;10.47;;;;;;;;;;5076992;28;20857;-72
2021/12/22 01:03:19;;;;;;;17.77;11.00;;;;;;;;;;5083269;28;20574;-72
2021/12/22 01:05:46;;;;;;;19.10;11.40;;;;;;;;;;5092433;28;20449;-73
2021/12/22 01:08:13;;;;;;;17.27;10.23;;;;;;;;;;5092335;28;20434;-73
2021/12/22 01:10:39;;;;;;;18.80;10.73;;;;;;;;;;5092548;28;20811;-72
2021/12/22 01:13:07;;;;;;;17.47;10.73;;;;;;;;;;5092068;28;20434;-72
2021/12/22 01:15:33;;;;;;;17.67;11.00;;;;;;;;;;5092114;28;20458;-73
2021/12/22 01:18:09;;;;;;;17.23;11.17;;;;;;;;;;5085064;28;20437;-72
2021/12/22 01:20:56;;;;;;;17.13;11.17;;;;;;;;;;5091313;28;20419;-72
2021/12/22 01:23:22;;;;;;;16.93;11.03;;;;;;;;;;5087421;28;20411;-72
2021/12/22 01:25:49;;;;;;;19.73;11.33;;;;;;;;;;5097650;28;20507;-72
2021/12/22 01:28:16;;;;;;;18.70;10.70;;;;;;;;;;5090517;28;20483;-72
2021/12/22 01:30:45;;;;;;;18.37;11.03;;;;;;;;;;5090365;28;20430;-72
2021/12/22 01:33:12;;;;;;;19.37;11.23;;;;;;;;;;5087390;28;20442;-72
2021/12/22 01:35:38;;;;;;;17.93;11.00;;;;;;;;;;5088319;28;20489;-72
2021/12/22 01:38:04;;;;;;;19.97;11.83;;;;;;;;;;5090760;28;20406;-72
2021/12/22 01:40:32;;;;;;;18.60;11.90;;;;;;;;;;5091127;28;20503;-72
2021/12/22 01:42:58;;;;;;;17.23;9.93;;;;;;;;;;5091592;28;20438;-72
2021/12/22 01:45:31;;;;;;;15.67;10.87;;;;;;;;;;5082679;28;20447;-72
2021/12/22 01:50:48;;;;;;;16.60;10.03;;;;;;;;;;5087453;28;20427;-72
2021/12/22 01:53:21;;;;;;;15.03;9.67;;;;;;;;;;5086133;28;20458;-72
2021/12/22 01:56:06;;;;;;;13.23;9.07;;;;;;;;;;5081388;28;20586;-73
2021/12/22 01:58:34;;;;;;;14.93;9.20;;;;;;;;;;5075093;28;20459;-72
2021/12/22 02:01:01;;;;;;;13.87;8.43;;;;;;;;;;5077882;28;20449;-72
2021/12/22 02:03:27;;;;;;;14.33;9.30;;;;;;;;;;5086307;28;20446;-72
2021/12/22 02:05:53;;;;;;;14.87;9.10;;;;;;;;;;5089165;28;20807;-72
2021/12/22 02:08:19;;;;;;;13.40;8.83;;;;;;;;;;5088483;28;21002;-72
2021/12/22 02:10:47;;;;;;;13.83;9.40;;;;;;;;;;5085764;28;20495;-72
2021/12/22 02:13:19;;;;;;;17.80;10.30;;;;;;;;;;5086505;28;20435;-72
2021/12/22 02:15:46;;;;;;;15.40;9.67;;;;;;;;;;5065817;28;20458;-72
2021/12/22 02:18:17;;;;;;;14.07;9.60;;;;;;;;;;5086131;28;20442;-71
2021/12/22 02:20:44;;;;;;;16.90;10.67;;;;;;;;;;5089618;28;20444;-71
2021/12/22 02:23:11;;;;;;;14.77;9.93;;;;;;;;;;5089138;28;20430;-72
2021/12/22 02:25:45;;;;;;;17.23;10.33;;;;;;;;;;5086039;28;20541;-72
2021/12/22 02:28:18;;;;;;;15.13;9.97;;;;;;;;;;5088919;28;20422;-72
2021/12/22 02:30:44;;;;;;;16.43;10.20;;;;;;;;;;5087220;28;20430;-72
2021/12/22 02:36:41;;;;;;;15.23;10.50;;;;;;;;;;5086926;28;20454;-73
2021/12/22 02:38:43;;;;;;;18.13;10.30;;;;;;;;;;5078865;28;20979;-71
2021/12/22 02:41:12;;;;;;;17.33;10.20;;;;;;;;;;5085750;28;20855;-72
2021/12/22 02:43:45;;;;;;;16.67;10.00;;;;;;;;;;5086886;28;20456;-73
2021/12/22 02:46:11;;;;;;;18.93;10.53;;;;;;;;;;5082261;28;20442;-72
2021/12/22 02:48:38;;;;;;;18.13;10.40;;;;;;;;;;5087786;28;20465;-72
2021/12/22 02:51:04;;;;;;;12.77;8.80;;;;;;;;;;5084670;28;20434;-72
2021/12/22 02:54:04;;;;;;;15.40;9.17;;;;;;;;;;5086923;28;20434;-72
2021/12/22 03:04:09;;;;;;;16.07;9.40;;;;;;;;;;5085601;28;21277;-72
2021/12/22 03:06:43;;;;;;;14.40;9.23;;;;;;;;;;5086542;28;20448;-73
2021/12/22 03:09:32;;;;;;;14.87;8.60;;;;;;;;;;5085412;28;20933;-72
2021/12/22 03:12:00;;;;;;;14.70;8.90;;;;;;;;;;5079926;28;20765;-71
2021/12/22 03:14:26;;;;;;;12.43;8.43;;;;;;;;;;5086931;28;20552;-72
2021/12/22 03:16:53;;;;;;;13.50;8.83;;;;;;;;;;5083709;28;20500;-72
2021/12/22 03:19:21;;;;;;;14.77;9.67;;;;;;;;;;5088688;28;20557;-71
2021/12/22 03:21:48;;;;;;;15.73;9.27;;;;;;;;;;5088713;28;20580;-72
2021/12/22 03:24:15;;;;;;;16.77;9.20;;;;;;;;;;5081992;28;20463;-72
2021/12/22 03:26:43;;;;;;;15.17;9.40;;;;;;;;;;5083081;28;20431;-72
2021/12/22 03:29:10;;;;;;;17.30;10.40;;;;;;;;;;5084426;28;20464;-72
2021/12/22 03:31:36;;;;;;;14.97;9.33;;;;;;;;;;5089215;28;20446;-72
2021/12/22 03:34:02;;;;;;;15.47;9.53;;;;;;;;;;5087791;28;20454;-71
2021/12/22 03:36:29;;;;;;;16.97;9.90;;;;;;;;;;5086450;28;20525;-72
2021/12/22 03:38:55;;;;;;;15.47;9.77;;;;;;;;;;5087019;28;20901;-71
2021/12/22 03:41:21;;;;;;;13.53;9.00;;;;;;;;;;5087258;28;20483;-72
2021/12/22 03:43:47;;;;;;;16.50;9.77;;;;;;;;;;5088379;28;20516;-72
2021/12/22 03:46:14;;;;;;;13.97;9.50;;;;;;;;;;5076028;28;20458;-71
2021/12/22 03:48:40;;;;;;;14.97;9.27;;;;;;;;;;5088275;28;20445;-72
2021/12/22 03:51:06;;;;;;;16.03;9.83;;;;;;;;;;5083689;28;20435;-73
2021/12/22 03:53:32;;;;;;;15.00;9.23;;;;;;;;;;5087797;28;20856;-73
2021/12/22 03:55:58;;;;;;;15.00;9.27;;;;;;;;;;5079985;28;20825;-73
2021/12/22 03:58:24;;;;;;;14.53;8.20;;;;;;;;;;5085416;28;20522;-73
2021/12/22 04:00:52;;;;;;;17.17;10.37;;;;;;;;;;5085067;28;20533;-72
2021/12/22 04:03:21;;;;;;;12.87;8.97;;;;;;;;;;5070171;28;20883;-71
2021/12/22 04:05:48;;;;;;;13.60;9.70;;;;;;;;;;5079355;28;20507;-72
2021/12/22 04:08:17;;;;;;;15.07;10.07;;;;;;;;;;5089021;28;20439;-73
2021/12/22 04:10:44;;;;;;;11.90;8.83;;;;;;;;;;5091872;28;20525;-72
2021/12/22 04:13:10;;;;;;;15.77;10.40;;;;;;;;;;5074307;28;20434;-71
2021/12/22 04:15:37;;;;;;;15.63;10.33;;;;;;;;;;5083685;28;20483;-74
2021/12/22 04:18:03;;;;;;;16.13;10.07;;;;;;;;;;5091457;28;20517;-73
2021/12/22 04:20:30;;;;;;;15.93;9.50;;;;;;;;;;5087424;28;20517;-72
2021/12/22 04:22:57;;;;;;;15.33;9.27;;;;;;;;;;5083434;28;20449;-72
2021/12/22 04:25:23;;;;;;;15.23;9.47;;;;;;;;;;5088702;28;20461;-72
2021/12/22 04:27:55;;;;;;;14.13;9.33;;;;;;;;;;5090902;28;20442;-73
2021/12/22 04:30:24;;;;;;;15.33;9.93;;;;;;;;;;5088602;28;20441;-72
2021/12/22 04:32:50;;;;;;;15.17;9.93;;;;;;;;;;5089686;28;20949;-73
2021/12/22 04:35:17;;;;;;;15.30;9.83;;;;;;;;;;5091658;28;20867;-72
2021/12/22 04:37:44;;;;;;;14.53;9.63;;;;;;;;;;5090982;28;20476;-73
2021/12/22 04:40:10;;;;;;;16.67;9.90;;;;;;;;;;5085954;28;20474;-73
2021/12/22 04:42:37;;;;;;;15.10;9.17;;;;;;;;;;5087407;28;20819;-72
2021/12/22 04:45:06;;;;;;;11.53;8.23;;;;;;;;;;5086623;28;20455;-71
2021/12/22 04:47:33;;;;;;;14.80;8.93;;;;;;;;;;5091949;28;20978;-73
2021/12/22 04:50:01;;;;;;;13.63;9.07;;;;;;;;;;5081340;28;20485;-72
2021/12/22 04:52:35;;;;;;;14.43;8.97;;;;;;;;;;5091469;28;20495;-72
2021/12/22 04:55:03;;;;;;;15.10;8.97;;;;;;;;;;5085956;28;20457;-72
2021/12/22 04:57:30;;;;;;;14.80;9.30;;;;;;;;;;5091208;28;20435;-72
2021/12/22 04:59:56;;;;;;;13.37;8.07;;;;;;;;;;5091977;28;21052;-72
2021/12/22 05:02:22;;;;;;;13.60;8.47;;;;;;;;;;5087512;28;20944;-73
2021/12/22 05:04:49;;;;;;;12.67;7.60;;;;;;;;;;5089311;28;20469;-73
2021/12/22 05:07:15;;;;;;;14.20;9.23;;;;;;;;;;5091002;28;20929;-73
2021/12/22 05:09:41;;;;;;;14.37;8.53;;;;;;;;;;5088799;28;20430;-72
2021/12/22 05:12:07;;;;;;;11.57;7.90;;;;;;;;;;5083670;28;20443;-73
2021/12/22 05:14:34;;;;;;;15.03;9.10;;;;;;;;;;5089162;28;20539;-72
2021/12/22 05:17:03;;;;;;;13.47;8.90;;;;;;;;;;5089368;28;20529;-71
2021/12/22 05:19:29;;;;;;;15.17;8.40;;;;;;;;;;5089578;28;20534;-73
2021/12/22 05:21:56;;;;;;;16.43;9.97;;;;;;;;;;5085442;28;20435;-72
2021/12/22 05:24:23;;;;;;;14.97;9.03;;;;;;;;;;5091219;28;20465;-71
2021/12/22 05:26:49;;;;;;;13.83;9.33;;;;;;;;;;5090455;28;20445;-72
2021/12/22 05:29:16;;;;;;;15.63;9.33;;;;;;;;;;5091351;28;20472;-72
2021/12/22 05:31:42;;;;;;;12.07;8.40;;;;;;;;;;5091832;28;20986;-72
2021/12/22 05:34:08;;;;;;;16.73;9.70;;;;;;;;;;5088788;28;20475;-73
2021/12/22 05:36:34;;;;;;;16.50;9.70;;;;;;;;;;5089068;28;20500;-72
2021/12/22 05:39:01;;;;;;;14.73;9.10;;;;;;;;;;5088101;28;20463;-72
2021/12/22 05:41:27;;;;;;;16.03;10.23;;;;;;;;;;5083653;28;20434;-72
2021/12/22 05:43:53;;;;;;;18.07;10.00;;;;;;;;;;5092117;28;20452;-73
2021/12/22 05:46:19;;;;;;;17.97;10.27;;;;;;;;;;5084320;28;20447;-74
2021/12/22 05:48:47;;;;;;;16.77;9.80;;;;;;;;;;5083721;28;20449;-71
2021/12/22 05:51:14;;;;;;;17.30;9.87;;;;;;;;;;5085481;28;20445;-72
2021/12/22 05:53:40;;;;;;;18.40;10.90;;;;;;;;;;5088368;28;20496;-71
2021/12/22 05:56:06;;;;;;;16.57;9.30;;;;;;;;;;5085434;28;20467;-72
2021/12/22 05:58:32;;;;;;;16.40;9.83;;;;;;;;;;5088989;28;20517;-71
2021/12/22 06:00:58;;;;;;;17.93;9.53;;;;;;;;;;5089111;28;20443;-72
2021/12/22 06:03:24;;;;;;;28.07;14.10;;;;;;;;;;5088407;28;20434;-72
2021/12/22 06:05:50;;;;;;;22.60;12.33;;;;;;;;;;5090023;28;20831;-72
2021/12/22 06:08:17;;;;;;;23.30;13.47;;;;;;;;;;5070270;28;20437;-72
2021/12/22 06:10:43;;;;;;;19.07;10.90;;;;;;;;;;5087219;28;20435;-73
2021/12/22 06:13:10;;;;;;;21.07;10.80;;;;;;;;;;5085887;28;20465;-72
2021/12/22 06:15:37;;;;;;;17.33;10.60;;;;;;;;;;5085881;28;20454;-72
2021/12/22 06:18:04;;;;;;;16.20;10.73;;;;;;;;;;5068131;28;21033;-72
2021/12/22 06:20:31;;;;;;;18.33;10.87;;;;;;;;;;5088536;28;20470;-71
2021/12/22 06:22:57;;;;;;;15.00;9.97;;;;;;;;;;5088254;28;20446;-72
2021/12/22 06:25:23;;;;;;;15.50;9.73;;;;;;;;;;5084841;28;20814;-72
2021/12/22 06:27:50;;;;;;;16.90;9.90;;;;;;;;;;5086461;28;20451;-72
2021/12/22 06:30:16;;;;;;;16.17;10.97;;;;;;;;;;5085640;28;20949;-72
2021/12/22 06:32:43;;;;;;;21.70;11.50;;;;;;;;;;5089307;28;20470;-72
2021/12/22 06:35:09;;;;;;;18.07;11.10;;;;;;;;;;5080875;28;20489;-71
2021/12/22 06:37:36;;;;;;;21.23;12.07;;;;;;;;;;5081651;28;20518;-72
2021/12/22 06:40:03;;;;;;;20.60;12.40;;;;;;;;;;5084580;28;20461;-72
2021/12/22 06:42:29;;;;;;;22.30;13.07;;;;;;;;;;5080700;28;20510;-72
2021/12/22 06:44:55;;;;;;;20.97;12.63;;;;;;;;;;5082510;28;20516;-72
2021/12/22 06:47:22;;;;;;;19.80;12.20;;;;;;;;;;5088481;28;20443;-72
2021/12/22 06:49:48;;;;;;;23.00;13.50;;;;;;;;;;5063076;28;20435;-72
2021/12/22 06:52:14;;;;;;;19.70;11.97;;;;;;;;;;5083865;28;20443;-72
2021/12/22 06:54:40;;;;;;;22.50;13.13;;;;;;;;;;5086674;28;20961;-72
2021/12/22 06:57:06;;;;;;;19.47;12.80;;;;;;;;;;5081370;28;20522;-72
2021/12/22 06:59:32;;;;;;;19.47;12.17;;;;;;;;;;5080860;28;20510;-72
2021/12/22 07:01:59;;;;;;;18.27;11.30;;;;;;;;;;5080817;28;20867;-72
2021/12/22 07:04:26;;;;;;;20.03;11.73;;;;;;;;;;5082413;28;20518;-73
2021/12/22 07:06:52;;;;;;;19.53;12.50;;;;;;;;;;5078483;28;20794;-72
2021/12/22 07:09:18;;;;;;;23.50;13.60;;;;;;;;;;5083585;28;20446;-73
2021/12/22 07:11:44;;;;;;;23.03;12.90;;;;;;;;;;5078968;28;20515;-74
2021/12/22 07:14:11;;;;;;;25.73;15.10;;;;;;;;;;5084336;28;20438;-76
2021/12/22 07:16:39;;;;;;;27.37;15.50;;;;;;;;;;5071317;28;20545;-76
2021/12/22 07:19:05;;;;;;;25.93;15.80;;;;;;;;;;5081974;28;20462;-77
2021/12/22 07:21:31;;;;;;;23.90;15.70;;;;;;;;;;5056468;28;20827;-74
2021/12/22 07:23:57;;;;;;;30.07;16.60;;;;;;;;;;5089576;28;20463;-75
2021/12/22 07:26:24;;;;;;;25.80;15.00;;;;;;;;;;5080089;28;20443;-77
2021/12/22 07:28:50;;;;;;;30.13;17.27;;;;;;;;;;5080889;28;20442;-75
2021/12/22 07:31:17;;;;;;;27.87;16.13;;;;;;;;;;5081478;28;20445;-73
2021/12/22 07:33:44;;;;;;;26.03;16.07;;;;;;;;;;5092279;28;20426;-77
2021/12/22 07:36:10;;;;;;;27.87;16.03;;;;;;;;;;5088057;28;20449;-75
2021/12/22 07:38:43;;;;;;;25.47;15.13;;;;;;;;;;5090706;28;21004;-76
2021/12/22 07:41:10;;;;;;;25.03;14.43;;;;;;;;;;5090485;28;20410;-77
2021/12/22 07:43:36;;;;;;;26.97;15.10;;;;;;;;;;5090254;28;20421;-77
2021/12/22 07:46:04;;;;;;;25.57;15.10;;;;;;;;;;5076906;28;20453;-76
2021/12/22 07:48:30;;;;;;;27.70;15.10;;;;;;;;;;5094175;28;20426;-77
2021/12/22 07:50:56;;;;;;;27.80;16.60;;;;;;;;;;5058916;28;20468;-76
2021/12/22 07:53:22;;;;;;;29.10;15.73;;;;;;;;;;5094465;28;20427;-76
2021/12/22 07:55:52;;;;;;;30.83;16.10;;;;;;;;;;5070987;28;20839;-76
2021/12/22 07:58:18;;;;;;;25.03;13.83;;;;;;;;;;5073692;28;20780;-78
2021/12/22 08:00:44;;;;;;;25.40;14.00;;;;;;;;;;5075074;28;21688;-75
2021/12/22 08:03:12;;;;;;;27.77;16.00;;;;;;;;;;5094331;28;20963;-78
2021/12/22 08:05:38;;;;;;;24.73;14.80;;;;;;;;;;5093073;28;20442;-78
2021/12/22 08:08:04;;;;;;;26.33;12.93;;;;;;;;;;5091558;28;20443;-78
2021/12/22 08:10:30;;;;;;;22.73;11.90;;;;;;;;;;5090720;28;20877;-78
2021/12/22 08:12:57;;;;;;;20.70;11.43;;;;;;;;;;5090859;28;20516;-75
2021/12/22 08:15:23;;;;;;;20.43;11.53;;;;;;;;;;5072109;28;20458;-75
2021/12/22 08:17:50;;;;;;;17.40;10.40;;;;;;;;;;5091539;28;20921;-75
2021/12/22 08:20:17;;;;;;;20.23;11.73;;;;;;;;;;5073731;28;20849;-75
2021/12/22 08:22:43;;;;;;;19.83;11.13;;;;;;;;;;5092002;28;20438;-77
2021/12/22 08:25:09;;;;;;;18.13;10.87;;;;;;;;;;5069993;28;20454;-76
2021/12/22 08:27:35;;;;;;;19.27;10.73;;;;;;;;;;5091265;28;20437;-77
2021/12/22 08:30:01;;;;;;;21.00;13.60;;;;;;;;;;5092304;28;20434;-76
2021/12/22 08:32:28;;;;;;;25.20;13.93;;;;;;;;;;5088840;28;20482;-76
2021/12/22 08:34:56;;;;;;;22.50;13.40;;;;;;;;;;5069900;28;20492;-76
2021/12/22 08:40:08;;;;;;;25.67;14.60;;;;;;;;;;5085106;28;20981;-76
2021/12/22 08:42:34;;;;;;;29.10;14.70;;;;;;;;;;5091307;28;20425;-77
2021/12/22 08:45:01;;;;;;;23.97;14.07;;;;;;;;;;5089732;28;20455;-76
2021/12/22 08:47:27;;;;;;;23.57;12.97;;;;;;;;;;5087453;28;20440;-76
2021/12/22 08:49:53;;;;;;;21.40;13.20;;;;;;;;;;5085181;28;20496;-76
2021/12/22 08:52:19;;;;;;;19.07;12.70;;;;;;;;;;5088821;28;20545;-76
2021/12/22 08:54:49;;;;;;;25.97;14.73;;;;;;;;;;5092426;28;20443;-77
2021/12/22 08:57:16;;;;;;;23.03;13.63;;;;;;;;;;5071756;28;20513;-76
2021/12/22 08:59:42;;;;;;;19.77;13.63;;;;;;;;;;5070890;28;20881;-77
2021/12/22 09:02:09;;;;;;;22.37;13.27;;;;;;;;;;5090131;28;20936;-77
2021/12/22 09:04:35;;;;;;;23.63;14.03;;;;;;;;;;5073127;28;21683;-77
2021/12/22 09:07:01;;;;;;;20.53;13.13;;;;;;;;;;5090058;28;20425;-77
2021/12/22 09:09:27;;;;;;;21.40;13.47;;;;;;;;;;5089864;28;20844;-77
2021/12/22 09:11:53;;;;;;;25.57;13.20;;;;;;;;;;5072783;28;20435;-76
2021/12/22 09:14:21;;;;;;;21.03;13.90;;;;;;;;;;5090043;28;20434;-77
2021/12/22 09:16:48;;;;;;;24.90;14.50;;;;;;;;;;5090523;28;20422;-77
2021/12/22 09:19:15;;;;;;;23.53;14.90;;;;;;;;;;5089951;28;20461;-76
2021/12/22 09:21:41;;;;;;;24.23;14.83;;;;;;;;;;5089859;28;20869;-76
2021/12/22 09:24:08;;;;;;;28.07;14.97;;;;;;;;;;5090008;28;20415;-76
2021/12/22 09:26:34;;;;;;;25.20;14.87;;;;;;;;;;5071821;28;20427;-77
2021/12/22 09:29:00;;;;;;;22.07;14.10;;;;;;;;;;5089776;28;20472;-77
2021/12/22 09:31:26;;;;;;;27.33;16.40;;;;;;;;;;5091877;28;21356;-76
2021/12/22 09:33:53;;;;;;;29.17;16.20;;;;;;;;;;5088925;28;20819;-76
2021/12/22 09:36:20;;;;;;;27.37;15.73;;;;;;;;;;5070318;28;20518;-77
2021/12/22 09:38:46;;;;;;;26.20;15.67;;;;;;;;;;5072337;28;20652;-76
2021/12/22 09:41:12;;;;;;;22.53;14.43;;;;;;;;;;5090459;28;20461;-76
2021/12/22 09:43:39;;;;;;;26.00;14.93;;;;;;;;;;5093370;28;20513;-76
2021/12/22 09:46:09;;;;;;;25.93;15.40;;;;;;;;;;5092634;28;20549;-76
2021/12/22 09:53:43;;;;;;;27.90;16.50;;;;;;;;;;5086516;28;20804;-77
2021/12/22 09:56:09;;;;;;;31.07;18.63;;;;;;;;;;5088065;28;20453;-77
2021/12/22 09:58:36;;;;;;;25.47;16.97;;;;;;;;;;5088900;28;20426;-76
2021/12/22 10:01:02;;;;;;;31.57;18.10;;;;;;;;;;5085310;28;20793;-76
2021/12/22 10:03:29;;;;;;;27.07;16.00;;;;;;;;;;5089182;28;20464;-76
2021/12/22 10:05:55;;;;;;;24.77;16.10;;;;;;;;;;5085017;28;20461;-76
2021/12/22 10:08:26;;;;;;;23.50;15.97;;;;;;;;;;5088744;28;20180;-80
2021/12/22 10:11:00;;;;;;;23.37;15.87;;;;;;;;;;5069417;28;20474;-77
2021/12/22 10:13:28;;;;;;;23.77;15.60;;;;;;;;;;5070980;28;20814;-78
2021/12/22 10:15:54;;;;;;;23.87;15.30;;;;;;;;;;5088302;28;20648;-77
2021/12/22 10:18:22;;;;;;;24.50;15.17;;;;;;;;;;5069615;28;20192;-77
2021/12/22 10:20:50;;;;;;;25.03;15.27;;;;;;;;;;5073099;28;20234;-77
2021/12/22 10:23:24;;;;;;;25.83;16.43;;;;;;;;;;5081970;28;20517;-77
2021/12/22 10:25:51;;;;;;;27.83;17.03;;;;;;;;;;5089600;28;20423;-77
2021/12/22 10:28:19;;;;;;;25.13;16.20;;;;;;;;;;5056592;28;20231;-82
2021/12/22 10:30:47;;;;;;;21.47;14.43;;;;;;;;;;5070601;28;20200;-83
2021/12/22 10:33:20;;;;;;;24.47;15.00;;;;;;;;;;5053336;28;20648;-77
2021/12/22 10:35:48;;;;;;;23.17;14.67;;;;;;;;;;5089200;28;20208;-76
2021/12/22 10:38:16;;;;;;;24.47;14.97;;;;;;;;;;5053242;28;20263;-76
2021/12/22 10:40:46;;;;;;;26.00;14.67;;;;;;;;;;5061761;28;20220;-77
2021/12/22 10:43:23;;;;;;;24.80;15.13;;;;;;;;;;5089096;28;20188;-77
2021/12/22 10:45:51;;;;;;;22.90;14.90;;;;;;;;;;5086201;28;20513;-80
2021/12/22 10:51:08;;;;;;;19.67;13.47;;;;;;;;;;5087393;28;20207;-79
2021/12/22 10:53:45;;;;;;;22.90;14.27;;;;;;;;;;5065140;28;20505;-79
2021/12/22 10:56:20;;;;;;;21.67;15.13;;;;;;;;;;5080848;28;20463;-78
2021/12/22 10:58:47;;;;;;;22.57;15.87;;;;;;;;;;5084989;28;20184;-78
2021/12/22 11:01:16;;;;;;;26.23;16.13;;;;;;;;;;5053412;28;20176;-75
2021/12/22 11:03:47;;;;;;;23.13;15.23;;;;;;;;;;5086625;28;20230;-74
2021/12/22 11:06:20;;;;;;;27.23;16.17;;;;;;;;;;5068674;28;20208;-77
2021/12/22 11:09:10;;;;;;;22.73;15.43;;;;;;;;;;5085931;28;20557;-81
2021/12/22 11:11:40;;;;;;;24.83;15.57;;;;;;;;;;5088865;28;20255;-73
2021/12/22 11:14:08;;;;;;;26.33;16.03;;;;;;;;;;5089593;28;20165;-74
2021/12/22 11:16:54;;;;;;;27.73;16.10;;;;;;;;;;5086310;28;20208;-76
2021/12/22 11:19:20;;;;;;;26.90;16.97;;;;;;;;;;5071075;28;20204;-75
2021/12/22 11:21:58;;;;;;;24.67;16.50;;;;;;;;;;5070031;28;20181;-76
2021/12/22 11:24:26;;;;;;;32.77;17.90;;;;;;;;;;5100868;28;20207;-76
2021/12/22 11:26:52;;;;;;;25.93;17.37;;;;;;;;;;5085106;28;20176;-75
2021/12/22 11:29:18;;;;;;;24.23;16.87;;;;;;;;;;5083969;28;20187;-75
2021/12/22 11:31:47;;;;;;;25.50;16.30;;;;;;;;;;5084388;28;20176;-76
2021/12/22 11:34:14;;;;;;;27.50;17.23;;;;;;;;;;5084928;28;20207;-75
2021/12/22 11:36:40;;;;;;;25.53;15.93;;;;;;;;;;5086810;28;20185;-75
2021/12/22 11:39:09;;;;;;;22.30;14.90;;;;;;;;;;5086045;28;20211;-79
2021/12/22 11:41:43;;;;;;;26.43;17.50;;;;;;;;;;5087099;28;20204;-78
2021/12/22 11:44:10;;;;;;;23.80;16.43;;;;;;;;;;5069577;28;20233;-77
2021/12/22 11:46:36;;;;;;;23.67;15.73;;;;;;;;;;5082492;28;20172;-76
2021/12/22 11:49:03;;;;;;;27.13;17.53;;;;;;;;;;5053095;28;20211;-76
2021/12/22 11:51:30;;;;;;;23.87;16.13;;;;;;;;;;5072055;28;20195;-78
2021/12/22 11:53:57;;;;;;;24.43;16.50;;;;;;;;;;5071621;28;20176;-76
2021/12/22 11:56:38;;;;;;;24.37;16.30;;;;;;;;;;5067129;28;20213;-76
2021/12/22 11:59:04;;;;;;;22.60;16.50;;;;;;;;;;5085381;28;20193;-75
2021/12/22 12:01:31;;;;;;;26.60;17.13;;;;;;;;;;5087784;28;20184;-75
2021/12/22 12:04:13;;;;;;;28.67;16.27;;;;;;;;;;5084938;28;20181;-77
2021/12/22 12:06:47;;;;;;;23.60;16.40;;;;;;;;;;5087032;28;20191;-74
2021/12/22 12:09:13;;;;;;;25.97;16.90;;;;;;;;;;5085537;28;20184;-77
2021/12/22 12:23:16;;;;;;;22.73;16.67;;;;;;;;;;5069638;28;20276;-77
2021/12/22 12:25:42;;;;;;;23.73;16.47;;;;;;;;;;5090141;28;20200;-76
2021/12/22 12:28:16;;;;;;;21.10;15.07;;;;;;;;;;5056102;28;20701;-77
2021/12/22 12:30:49;;;;;;;21.87;14.60;;;;;;;;;;5075195;28;20234;-78
2021/12/22 12:33:23;;;;;;;23.70;16.20;;;;;;;;;;5081056;28;20189;-77
2021/12/22 12:36:11;;;;;;;22.13;15.60;;;;;;;;;;5055455;28;20578;-77
2021/12/22 12:38:40;;;;;;;20.43;15.13;;;;;;;;;;5085782;28;20184;-77
2021/12/22 12:41:12;;;;;;;21.43;15.43;;;;;;;;;;5096766;28;20183;-77
2021/12/22 12:43:46;;;;;;;25.47;15.70;;;;;;;;;;5076793;28;20173;-76
2021/12/22 12:46:27;;;;;;;21.83;15.83;;;;;;;;;;5089131;28;20192;-78
2021/12/22 12:49:08;;;;;;;20.57;15.40;;;;;;;;;;5087278;28;20211;-78
2021/12/22 12:51:35;;;;;;;19.77;14.73;;;;;;;;;;5072525;28;20678;-77
2021/12/22 12:54:02;;;;;;;24.07;16.67;;;;;;;;;;5087111;28;20189;-79
2021/12/22 12:56:32;;;;;;;21.40;15.70;;;;;;;;;;5091815;28;20223;-85
2021/12/22 12:59:03;;;;;;;23.50;15.63;;;;;;;;;;5085639;28;20666;-78
2021/12/22 13:04:21;;;;;;;22.67;15.57;;;;;;;;;;5074052;28;20561;-78
2021/12/22 13:06:47;;;;;;;22.73;16.53;;;;;;;;;;5071371;28;20254;-79
2021/12/22 13:09:21;;;;;;;22.67;15.70;;;;;;;;;;5062323;28;20176;-78
2021/12/22 13:11:56;;;;;;;20.00;14.87;;;;;;;;;;5071596;28;20290;-80
2021/12/22 13:17:14;;;;;;;20.23;14.47;;;;;;;;;;5087032;28;20268;-78
2021/12/22 13:19:41;;;;;;;20.57;13.93;;;;;;;;;;5071104;28;20212;-78
2021/12/22 13:22:25;;;;;;;22.77;16.33;;;;;;;;;;5088602;28;20462;-78
2021/12/22 13:25:06;;;;;;;21.93;16.57;;;;;;;;;;5085266;28;20204;-76
2021/12/22 13:27:33;;;;;;;20.47;15.10;;;;;;;;;;5090455;28;20648;-77
2021/12/22 13:30:13;;;;;;;23.33;16.67;;;;;;;;;;5056152;28;20192;-77
2021/12/22 13:32:58;;;;;;;24.37;16.83;;;;;;;;;;5090691;28;20180;-78
2021/12/22 13:35:31;;;;;;;22.80;16.20;;;;;;;;;;5055911;28;20216;-77
2021/12/22 13:37:57;;;;;;;21.00;15.63;;;;;;;;;;5071279;28;20238;-77
2021/12/22 13:40:41;;;;;;;24.23;16.77;;;;;;;;;;5071489;28;20257;-78
2021/12/22 13:43:07;;;;;;;24.17;16.33;;;;;;;;;;5091295;28;20536;-75
2021/12/22 13:45:35;;;;;;;22.50;15.63;;;;;;;;;;5070665;28;20610;-77
2021/12/22 13:48:02;;;;;;;20.00;14.53;;;;;;;;;;5088673;28;20173;-77
2021/12/22 13:50:28;;;;;;;23.63;15.93;;;;;;;;;;5087276;28;20197;-77
2021/12/22 13:52:54;;;;;;;27.43;15.90;;;;;;;;;;5085187;28;20562;-77
2021/12/22 13:55:21;;;;;;;25.03;16.30;;;;;;;;;;5085292;28;20208;-77
2021/12/22 13:57:47;;;;;;;24.53;17.03;;;;;;;;;;5084793;28;20324;-77
2021/12/22 14:00:18;;;;;;;22.00;14.43;;;;;;;;;;5052804;28;20211;-76
2021/12/22 14:02:44;;;;;;;21.63;15.40;;;;;;;;;;5087382;28;20233;-75
2021/12/22 14:05:18;;;;;;;24.83;18.17;;;;;;;;;;5086786;28;20204;-77
2021/12/22 14:07:44;;;;;;;25.23;16.53;;;;;;;;;;5089230;28;20180;-75
2021/12/22 14:10:15;;;;;;;24.90;17.30;;;;;;;;;;5090018;28;20311;-78
2021/12/22 14:12:44;;;;;;;22.73;16.40;;;;;;;;;;5071392;28;20206;-77
2021/12/22 14:15:11;;;;;;;23.50;16.67;;;;;;;;;;5088873;28;20207;-78
2021/12/22 14:17:47;;;;;;;23.20;16.53;;;;;;;;;;5089469;28;20243;-78
2021/12/22 14:20:17;;;;;;;29.90;18.50;;;;;;;;;;5069591;28;20319;-76
2021/12/22 14:22:48;;;;;;;24.77;17.63;;;;;;;;;;5085150;28;20181;-76
2021/12/22 14:25:19;;;;;;;25.50;17.80;;;;;;;;;;5072483;28;20206;-77
2021/12/22 14:27:53;;;;;;;25.47;17.30;;;;;;;;;;5090766;28;20707;-75
2021/12/22 14:30:21;;;;;;;23.87;17.27;;;;;;;;;;5107830;28;20187;-75
2021/12/22 14:32:59;;;;;;;26.27;17.63;;;;;;;;;;5088487;28;20230;-77
2021/12/22 14:35:26;;;;;;;26.87;18.00;;;;;;;;;;5086841;28;20241;-76
2021/12/22 14:38:18;;;;;;;25.80;17.67;;;;;;;;;;5089239;28;20189;-76
2021/12/22 14:40:58;;;;;;;26.43;17.47;;;;;;;;;;5085949;28;20247;-77
2021/12/22 14:43:43;;;;;;;22.77;16.17;;;;;;;;;;5089366;28;20180;-77
2021/12/22 14:46:10;;;;;;;22.97;16.20;;;;;;;;;;5086481;28;20236;-77
2021/12/22 14:48:41;;;;;;;23.97;15.77;;;;;;;;;;5086475;28;20188;-77
2021/12/22 14:51:09;;;;;;;22.63;15.53;;;;;;;;;;5085747;28;20182;-77
2021/12/22 14:53:43;;;;;;;22.87;16.47;;;;;;;;;;5079412;28;20188;-76
2021/12/22 14:56:19;;;;;;;23.10;15.07;;;;;;;;;;5086569;28;20608;-78
2021/12/22 14:58:46;;;;;;;24.73;17.17;;;;;;;;;;5086482;28;21124;-77
2021/12/22 15:01:13;;;;;;;25.53;16.20;;;;;;;;;;5069127;28;20184;-77
2021/12/22 15:03:39;;;;;;;26.10;17.40;;;;;;;;;;5088316;28;20212;-77
2021/12/22 15:06:09;;;;;;;27.10;18.30;;;;;;;;;;5085807;28;20209;-77
2021/12/22 15:08:35;;;;;;;27.43;18.47;;;;;;;;;;5087269;28;20270;-77
2021/12/22 15:11:02;;;;;;;26.47;18.40;;;;;;;;;;5085638;28;20280;-77